sensor_id;sensor_type;location;lat;lon;timestamp;pressure;altitude;pressure_sealevel;temperature;humidity
23574;BME280;11965;53.640;10.050;2023-08-20T00:00:09;101878.28;;;17.54;100.00
23574;BME280;11965;53.640;10.050;2023-08-20T00:02:43;101885.88;;;17.47;100.00
23574;BME280;11965;53.640;10.050;2023-08-20T00:05:13;101891.88;;;17.37;100.00
23574;BME280;11965;53.640;10.050;2023-08-20T00:07:40;101896.84;;;17.28;100.00
23574;BME280;11965;53.640;10.050;2023-08-20T00:10:08;101899.00;;;17.19;100.00
23574;BME280;11965;53.640;10.050;2023-08-20T00:12:35;101892.06;;;17.15;100.00
23574;BME280;11965;53.640;10.050;2023-08-20T00:15:04;101898.06;;;17.06;100.00
23574;BME280;11965;53.640;10.050;2023-08-20T00:17:32;101905.41;;;17.00;100.00
23574;BME280;11965;53.640;10.050;2023-08-20T00:20:01;101910.56;;;16.96;100.00
23574;BME280;11965;53.640;10.050;2023-08-20T00:22:33;101916.13;;;16.90;100.00
23574;BME280;11965;53.640;10.050;2023-08-20T00:25:01;101919.78;;;16.84;100.00
23574;BME280;11965;53.640;10.050;2023-08-20T00:27:28;101916.75;;;16.78;100.00
23574;BME280;11965;53.640;10.050;2023-08-20T00:29:55;101920.16;;;16.74;100.00
23574;BME280;11965;53.640;10.050;2023-08-20T00:32:22;101920.97;;;16.68;100.00
23574;BME280;11965;53.640;10.050;2023-08-20T00:34:49;101927.84;;;16.65;100.00
23574;BME280;11965;53.640;10.050;2023-08-20T00:37:17;101928.69;;;16.59;100.00
23574;BME280;11965;53.640;10.050;2023-08-20T00:39:44;101920.91;;;16.54;100.00
23574;BME280;11965;53.640;10.050;2023-08-20T00:42:11;101927.59;;;16.53;100.00
23574;BME280;11965;53.640;10.050;2023-08-20T00:44:39;101926.75;;;16.60;100.00
23574;BME280;11965;53.640;10.050;2023-08-20T00:47:07;101920.91;;;16.54;100.00
23574;BME280;11965;53.640;10.050;2023-08-20T00:49:35;101915.50;;;16.46;100.00
23574;BME280;11965;53.640;10.050;2023-08-20T00:52:04;101924.31;;;16.43;100.00
23574;BME280;11965;53.640;10.050;2023-08-20T00:54:33;101907.09;;;16.40;100.00
23574;BME280;11965;53.640;10.050;2023-08-20T00:57:01;101922.78;;;16.34;100.00
23574;BME280;11965;53.640;10.050;2023-08-20T00:59:30;101923.38;;;16.29;100.00
23574;BME280;11965;53.640;10.050;2023-08-20T01:01:58;101920.34;;;16.24;100.00
23574;BME280;11965;53.640;10.050;2023-08-20T01:04:25;101923.75;;;16.20;100.00
23574;BME280;11965;53.640;10.050;2023-08-20T01:07:03;101921.16;;;16.18;100.00
23574;BME280;11965;53.640;10.050;2023-08-20T01:09:43;101915.09;;;16.15;100.00
23574;BME280;11965;53.640;10.050;2023-08-20T01:12:17;101922.88;;;16.12;100.00
23574;BME280;11965;53.640;10.050;2023-08-20T01:14:44;101919.59;;;16.09;100.00
23574;BME280;11965;53.640;10.050;2023-08-20T01:17:11;101919.56;;;16.02;100.00
23574;BME280;11965;53.640;10.050;2023-08-20T01:19:40;101925.56;;;15.99;100.00
23574;BME280;11965;53.640;10.050;2023-08-20T01:22:45;101911.09;;;15.96;100.00
23574;BME280;11965;53.640;10.050;2023-08-20T01:25:32;101918.19;;;15.92;100.00
23574;BME280;11965;53.640;10.050;2023-08-20T01:28:24;101919.28;;;15.90;100.00
23574;BME280;11965;53.640;10.050;2023-08-20T01:30:53;101919.03;;;15.85;100.00
23574;BME280;11965;53.640;10.050;2023-08-20T01:33:21;101926.28;;;15.80;100.00
23574;BME280;11965;53.640;10.050;2023-08-20T01:35:50;101925.81;;;15.76;100.00
23574;BME280;11965;53.640;10.050;2023-08-20T01:38:17;101929.88;;;15.74;100.00
23574;BME280;11965;53.640;10.050;2023-08-20T01:40:44;101928.34;;;15.71;100.00
23574;BME280;11965;53.640;10.050;2023-08-20T01:43:11;101938.91;;;15.69;100.00
23574;BME280;11965;53.640;10.050;2023-08-20T01:45:39;101933.66;;;15.66;100.00
23574;BME280;11965;53.640;10.050;2023-08-20T01:48:07;101928.47;;;15.63;100.00
23574;BME280;11965;53.640;10.050;2023-08-20T01:50:35;101929.53;;;15.62;100.00
23574;BME280;11965;53.640;10.050;2023-08-20T01:53:02;101935.94;;;15.56;100.00
23574;BME280;11965;53.640;10.050;2023-08-20T01:55:32;101930.09;;;15.51;100.00
23574;BME280;11965;53.640;10.050;2023-08-20T01:57:59;101932.66;;;15.52;100.00
23574;BME280;11965;53.640;10.050;2023-08-20T02:00:26;101932.03;;;15.50;100.00
23574;BME280;11965;53.640;10.050;2023-08-20T02:02:55;101927.91;;;15.46;100.00
23574;BME280;11965;53.640;10.050;2023-08-20T02:05:23;101926.19;;;15.45;100.00
23574;BME280;11965;53.640;10.050;2023-08-20T02:07:49;101927.44;;;15.42;100.00
23574;BME280;11965;53.640;10.050;2023-08-20T02:10:16;101924.16;;;15.39;100.00
23574;BME280;11965;53.640;10.050;2023-08-20T02:12:43;101932.09;;;15.35;100.00
23574;BME280;11965;53.640;10.050;2023-08-20T02:15:10;101920.88;;;15.29;100.00
23574;BME280;11965;53.640;10.050;2023-08-20T02:17:37;101927.19;;;15.37;100.00
23574;BME280;11965;53.640;10.050;2023-08-20T02:20:07;101927.94;;;15.31;100.00
23574;BME280;11965;53.640;10.050;2023-08-20T02:22:35;101928.22;;;15.36;100.00
23574;BME280;11965;53.640;10.050;2023-08-20T02:25:03;101938.09;;;15.32;100.00
23574;BME280;11965;53.640;10.050;2023-08-20T02:27:30;101935.03;;;15.27;100.00
23574;BME280;11965;53.640;10.050;2023-08-20T02:29:56;101932.63;;;15.24;100.00
23574;BME280;11965;53.640;10.050;2023-08-20T02:32:23;101942.06;;;15.23;100.00
23574;BME280;11965;53.640;10.050;2023-08-20T02:34:50;101952.09;;;15.17;100.00
23574;BME280;11965;53.640;10.050;2023-08-20T02:37:20;101947.13;;;15.13;100.00
23574;BME280;11965;53.640;10.050;2023-08-20T02:39:46;101940.88;;;15.11;100.00
23574;BME280;11965;53.640;10.050;2023-08-20T02:42:13;101925.66;;;15.13;100.00
23574;BME280;11965;53.640;10.050;2023-08-20T02:44:40;101930.75;;;15.10;100.00
23574;BME280;11965;53.640;10.050;2023-08-20T02:47:07;101930.50;;;15.05;100.00
23574;BME280;11965;53.640;10.050;2023-08-20T02:49:34;101935.00;;;15.06;100.00
23574;BME280;11965;53.640;10.050;2023-08-20T02:52:02;101936.31;;;15.10;100.00
23574;BME280;11965;53.640;10.050;2023-08-20T02:54:31;101919.38;;;15.11;100.00
23574;BME280;11965;53.640;10.050;2023-08-20T02:56:59;101928.75;;;15.03;100.00
23574;BME280;11965;53.640;10.050;2023-08-20T02:59:25;101925.03;;;14.96;100.00
23574;BME280;11965;53.640;10.050;2023-08-20T03:01:52;101920.91;;;14.92;100.00
23574;BME280;11965;53.640;10.050;2023-08-20T03:04:19;101926.19;;;14.87;100.00
23574;BME280;11965;53.640;10.050;2023-08-20T03:06:46;101922.09;;;14.83;100.00
23574;BME280;11965;53.640;10.050;2023-08-20T03:09:13;101928.53;;;14.84;100.00
23574;BME280;11965;53.640;10.050;2023-08-20T03:11:41;101924.38;;;14.79;100.00
23574;BME280;11965;53.640;10.050;2023-08-20T03:14:08;101937.31;;;14.80;100.00
23574;BME280;11965;53.640;10.050;2023-08-20T03:16:35;101945.88;;;14.79;100.00
23574;BME280;11965;53.640;10.050;2023-08-20T03:19:02;101939.81;;;14.75;100.00
23574;BME280;11965;53.640;10.050;2023-08-20T03:21:29;101944.31;;;14.76;100.00
23574;BME280;11965;53.640;10.050;2023-08-20T03:23:56;101941.53;;;14.76;100.00
23574;BME280;11965;53.640;10.050;2023-08-20T03:26:22;101946.84;;;14.71;100.00
23574;BME280;11965;53.640;10.050;2023-08-20T03:28:51;101950.19;;;14.67;100.00
23574;BME280;11965;53.640;10.050;2023-08-20T03:31:18;101949.28;;;14.60;100.00
23574;BME280;11965;53.640;10.050;2023-08-20T03:33:46;101949.44;;;14.58;100.00
23574;BME280;11965;53.640;10.050;2023-08-20T03:36:13;101941.28;;;14.56;100.00
23574;BME280;11965;53.640;10.050;2023-08-20T03:38:41;101947.06;;;14.55;100.00
23574;BME280;11965;53.640;10.050;2023-08-20T03:41:08;101943.94;;;14.50;100.00
23574;BME280;11965;53.640;10.050;2023-08-20T03:43:35;101953.19;;;14.50;100.00
23574;BME280;11965;53.640;10.050;2023-08-20T03:46:03;101957.44;;;14.46;100.00
23574;BME280;11965;53.640;10.050;2023-08-20T03:48:30;101954.81;;;14.45;100.00
23574;BME280;11965;53.640;10.050;2023-08-20T03:50:57;101966.38;;;14.42;100.00
23574;BME280;11965;53.640;10.050;2023-08-20T03:53:24;101970.41;;;14.39;100.00
23574;BME280;11965;53.640;10.050;2023-08-20T03:55:51;101971.47;;;14.38;100.00
23574;BME280;11965;53.640;10.050;2023-08-20T03:58:18;101976.84;;;14.40;100.00
23574;BME280;11965;53.640;10.050;2023-08-20T04:00:45;101981.94;;;14.36;100.00
23574;BME280;11965;53.640;10.050;2023-08-20T04:03:13;101981.66;;;14.31;100.00
23574;BME280;11965;53.640;10.050;2023-08-20T04:05:40;101985.91;;;14.27;100.00
23574;BME280;11965;53.640;10.050;2023-08-20T04:08:07;101991.28;;;14.28;100.00
23574;BME280;11965;53.640;10.050;2023-08-20T04:10:34;101986.56;;;14.29;100.00
23574;BME280;11965;53.640;10.050;2023-08-20T04:13:01;101986.38;;;14.30;100.00
23574;BME280;11965;53.640;10.050;2023-08-20T04:15:28;101982.44;;;14.25;100.00
23574;BME280;11965;53.640;10.050;2023-08-20T04:17:55;101980.91;;;14.22;100.00
23574;BME280;11965;53.640;10.050;2023-08-20T04:20:23;101990.97;;;14.23;100.00
23574;BME280;11965;53.640;10.050;2023-08-20T04:22:50;101981.19;;;14.27;100.00
23574;BME280;11965;53.640;10.050;2023-08-20T04:25:17;101984.66;;;14.29;100.00
23574;BME280;11965;53.640;10.050;2023-08-20T04:27:44;101987.63;;;14.28;100.00
23574;BME280;11965;53.640;10.050;2023-08-20T04:30:12;101991.84;;;14.24;100.00
23574;BME280;11965;53.640;10.050;2023-08-20T04:32:39;101999.63;;;14.28;100.00
23574;BME280;11965;53.640;10.050;2023-08-20T04:35:06;101996.66;;;14.30;100.00
23574;BME280;11965;53.640;10.050;2023-08-20T04:37:34;101995.59;;;14.31;100.00
23574;BME280;11965;53.640;10.050;2023-08-20T04:40:01;101996.28;;;14.33;100.00
23574;BME280;11965;53.640;10.050;2023-08-20T04:42:30;102000.41;;;14.37;100.00
23574;BME280;11965;53.640;10.050;2023-08-20T04:44:57;101996.19;;;14.41;100.00
23574;BME280;11965;53.640;10.050;2023-08-20T04:47:26;101995.63;;;14.46;100.00
23574;BME280;11965;53.640;10.050;2023-08-20T04:49:53;101998.53;;;14.52;100.00
23574;BME280;11965;53.640;10.050;2023-08-20T04:52:20;101995.63;;;14.61;100.00
23574;BME280;11965;53.640;10.050;2023-08-20T04:54:49;101992.56;;;14.70;100.00
23574;BME280;11965;53.640;10.050;2023-08-20T04:57:18;101983.41;;;14.76;100.00
23574;BME280;11965;53.640;10.050;2023-08-20T04:59:45;101985.03;;;14.86;100.00
23574;BME280;11965;53.640;10.050;2023-08-20T05:02:20;101979.59;;;14.99;100.00
23574;BME280;11965;53.640;10.050;2023-08-20T05:04:53;101982.34;;;15.14;100.00
23574;BME280;11965;53.640;10.050;2023-08-20T05:07:20;101979.03;;;15.25;100.00
23574;BME280;11965;53.640;10.050;2023-08-20T05:09:49;101971.00;;;15.37;100.00
23574;BME280;11965;53.640;10.050;2023-08-20T05:12:16;101977.50;;;15.44;100.00
23574;BME280;11965;53.640;10.050;2023-08-20T05:14:43;101983.19;;;15.51;100.00
23574;BME280;11965;53.640;10.050;2023-08-20T05:17:09;101980.81;;;15.69;100.00
23574;BME280;11965;53.640;10.050;2023-08-20T05:19:36;101984.19;;;15.86;100.00
23574;BME280;11965;53.640;10.050;2023-08-20T05:22:03;101983.59;;;15.90;100.00
23574;BME280;11965;53.640;10.050;2023-08-20T05:24:33;101983.81;;;15.96;100.00
23574;BME280;11965;53.640;10.050;2023-08-20T05:27:06;101979.81;;;16.05;100.00
23574;BME280;11965;53.640;10.050;2023-08-20T05:29:33;101966.63;;;16.27;100.00
23574;BME280;11965;53.640;10.050;2023-08-20T05:32:02;101972.47;;;16.32;100.00
23574;BME280;11965;53.640;10.050;2023-08-20T05:34:30;101956.97;;;16.29;100.00
23574;BME280;11965;53.640;10.050;2023-08-20T05:36:57;101956.34;;;16.34;100.00
23574;BME280;11965;53.640;10.050;2023-08-20T05:39:24;101953.16;;;16.44;100.00
23574;BME280;11965;53.640;10.050;2023-08-20T05:41:52;101955.41;;;16.62;100.00
23574;BME280;11965;53.640;10.050;2023-08-20T05:44:20;101944.56;;;16.87;100.00
23574;BME280;11965;53.640;10.050;2023-08-20T05:46:48;101951.06;;;17.00;100.00
23574;BME280;11965;53.640;10.050;2023-08-20T05:49:16;101958.91;;;17.32;100.00
23574;BME280;11965;53.640;10.050;2023-08-20T05:51:43;101967.09;;;17.27;100.00
23574;BME280;11965;53.640;10.050;2023-08-20T05:54:10;101980.25;;;17.26;100.00
23574;BME280;11965;53.640;10.050;2023-08-20T05:56:37;101982.88;;;17.48;100.00
23574;BME280;11965;53.640;10.050;2023-08-20T05:59:04;101994.38;;;17.93;100.00
23574;BME280;11965;53.640;10.050;2023-08-20T06:01:33;102001.91;;;18.19;100.00
23574;BME280;11965;53.640;10.050;2023-08-20T06:04:00;102000.41;;;18.36;100.00
23574;BME280;11965;53.640;10.050;2023-08-20T06:06:27;101999.09;;;18.32;100.00
23574;BME280;11965;53.640;10.050;2023-08-20T06:08:55;101996.50;;;18.37;100.00
23574;BME280;11965;53.640;10.050;2023-08-20T06:11:22;101983.38;;;18.18;100.00
23574;BME280;11965;53.640;10.050;2023-08-20T06:13:48;101984.44;;;18.17;100.00
23574;BME280;11965;53.640;10.050;2023-08-20T06:16:15;101986.75;;;18.60;100.00
23574;BME280;11965;53.640;10.050;2023-08-20T06:18:43;101999.50;;;18.42;100.00
23574;BME280;11965;53.640;10.050;2023-08-20T06:21:10;101995.13;;;18.73;100.00
23574;BME280;11965;53.640;10.050;2023-08-20T06:23:38;102001.22;;;19.15;100.00
23574;BME280;11965;53.640;10.050;2023-08-20T06:26:05;102001.88;;;19.17;100.00
23574;BME280;11965;53.640;10.050;2023-08-20T06:28:32;101992.28;;;19.31;100.00
23574;BME280;11965;53.640;10.050;2023-08-20T06:30:59;101991.72;;;19.16;100.00
23574;BME280;11965;53.640;10.050;2023-08-20T06:33:26;101990.19;;;19.20;100.00
23574;BME280;11965;53.640;10.050;2023-08-20T06:35:54;101983.09;;;19.49;100.00
23574;BME280;11965;53.640;10.050;2023-08-20T06:38:21;101986.66;;;19.31;100.00
23574;BME280;11965;53.640;10.050;2023-08-20T06:40:47;101980.06;;;19.12;100.00
23574;BME280;11965;53.640;10.050;2023-08-20T06:43:14;101985.59;;;19.26;100.00
23574;BME280;11965;53.640;10.050;2023-08-20T06:45:41;101993.84;;;19.20;100.00
23574;BME280;11965;53.640;10.050;2023-08-20T06:48:08;102002.03;;;18.84;100.00
23574;BME280;11965;53.640;10.050;2023-08-20T06:50:35;102009.22;;;19.18;100.00
23574;BME280;11965;53.640;10.050;2023-08-20T06:53:03;102008.38;;;19.56;100.00
23574;BME280;11965;53.640;10.050;2023-08-20T06:55:31;102011.91;;;19.76;100.00
23574;BME280;11965;53.640;10.050;2023-08-20T06:57:57;102018.59;;;19.82;100.00
23574;BME280;11965;53.640;10.050;2023-08-20T07:00:24;102007.50;;;19.87;100.00
23574;BME280;11965;53.640;10.050;2023-08-20T07:02:51;102013.88;;;19.76;100.00
23574;BME280;11965;53.640;10.050;2023-08-20T07:05:18;102016.59;;;19.89;100.00
23574;BME280;11965;53.640;10.050;2023-08-20T07:07:45;102010.78;;;20.09;100.00
23574;BME280;11965;53.640;10.050;2023-08-20T07:10:13;102013.34;;;20.36;100.00
23574;BME280;11965;53.640;10.050;2023-08-20T07:12:40;102008.34;;;20.63;100.00
23574;BME280;11965;53.640;10.050;2023-08-20T07:15:07;102008.66;;;20.29;100.00
23574;BME280;11965;53.640;10.050;2023-08-20T07:17:34;102015.94;;;19.87;100.00
23574;BME280;11965;53.640;10.050;2023-08-20T07:20:01;102028.72;;;19.51;100.00
23574;BME280;11965;53.640;10.050;2023-08-20T07:22:29;102023.97;;;19.52;100.00
23574;BME280;11965;53.640;10.050;2023-08-20T07:24:56;102040.56;;;19.22;100.00
23574;BME280;11965;53.640;10.050;2023-08-20T07:27:24;102026.53;;;19.15;100.00
23574;BME280;11965;53.640;10.050;2023-08-20T07:29:51;102017.38;;;19.71;100.00
23574;BME280;11965;53.640;10.050;2023-08-20T07:32:18;102018.13;;;20.35;100.00
23574;BME280;11965;53.640;10.050;2023-08-20T07:34:44;102015.53;;;20.34;100.00
23574;BME280;11965;53.640;10.050;2023-08-20T07:37:11;102020.47;;;20.82;100.00
23574;BME280;11965;53.640;10.050;2023-08-20T07:39:38;102021.25;;;21.26;100.00
23574;BME280;11965;53.640;10.050;2023-08-20T07:42:06;102022.31;;;21.43;100.00
23574;BME280;11965;53.640;10.050;2023-08-20T07:44:34;102020.06;;;21.33;100.00
23574;BME280;11965;53.640;10.050;2023-08-20T07:47:01;102029.41;;;21.64;100.00
23574;BME280;11965;53.640;10.050;2023-08-20T07:49:28;102028.75;;;21.32;100.00
23574;BME280;11965;53.640;10.050;2023-08-20T07:51:55;102026.41;;;21.47;100.00
23574;BME280;11965;53.640;10.050;2023-08-20T07:54:21;102030.25;;;21.65;100.00
23574;BME280;11965;53.640;10.050;2023-08-20T07:56:48;102026.91;;;21.56;100.00
23574;BME280;11965;53.640;10.050;2023-08-20T07:59:15;102032.13;;;21.22;100.00
23574;BME280;11965;53.640;10.050;2023-08-20T08:01:43;102025.94;;;21.62;100.00
23574;BME280;11965;53.640;10.050;2023-08-20T08:04:10;102029.41;;;21.64;99.65
23574;BME280;11965;53.640;10.050;2023-08-20T08:06:37;102032.34;;;21.57;99.69
23574;BME280;11965;53.640;10.050;2023-08-20T08:09:20;102033.41;;;21.08;100.00
23574;BME280;11965;53.640;10.050;2023-08-20T08:11:48;102037.88;;;20.97;100.00
23574;BME280;11965;53.640;10.050;2023-08-20T08:14:15;102034.78;;;21.17;99.37
23574;BME280;11965;53.640;10.050;2023-08-20T08:16:44;102046.69;;;21.19;98.08
23574;BME280;11965;53.640;10.050;2023-08-20T08:19:11;102045.50;;;21.27;96.85
23574;BME280;11965;53.640;10.050;2023-08-20T08:21:38;102044.97;;;21.18;96.25
23574;BME280;11965;53.640;10.050;2023-08-20T08:24:06;102041.97;;;21.31;93.44
23574;BME280;11965;53.640;10.050;2023-08-20T08:26:34;102046.28;;;21.34;97.16
23574;BME280;11965;53.640;10.050;2023-08-20T08:29:02;102051.25;;;21.20;94.78
23574;BME280;11965;53.640;10.050;2023-08-20T08:31:29;102056.94;;;21.32;94.83
23574;BME280;11965;53.640;10.050;2023-08-20T08:33:57;102051.47;;;21.37;95.82
23574;BME280;11965;53.640;10.050;2023-08-20T08:36:24;102051.13;;;21.64;94.47
23574;BME280;11965;53.640;10.050;2023-08-20T08:38:51;102052.75;;;21.71;89.93
23574;BME280;11965;53.640;10.050;2023-08-20T08:41:21;102058.81;;;21.56;92.00
23574;BME280;11965;53.640;10.050;2023-08-20T08:43:49;102046.22;;;21.71;92.51
23574;BME280;11965;53.640;10.050;2023-08-20T08:46:16;102052.13;;;21.81;89.95
23574;BME280;11965;53.640;10.050;2023-08-20T08:48:44;102055.38;;;21.96;89.71
23574;BME280;11965;53.640;10.050;2023-08-20T08:51:13;102056.00;;;21.98;89.51
23574;BME280;11965;53.640;10.050;2023-08-20T08:53:42;102052.47;;;22.15;87.06
23574;BME280;11965;53.640;10.050;2023-08-20T08:56:10;102055.59;;;22.37;90.08
23574;BME280;11965;53.640;10.050;2023-08-20T08:58:37;102056.72;;;22.47;85.53
23574;BME280;11965;53.640;10.050;2023-08-20T09:01:03;102064.81;;;22.56;85.25
23574;BME280;11965;53.640;10.050;2023-08-20T09:03:32;102060.16;;;22.61;84.46
23574;BME280;11965;53.640;10.050;2023-08-20T09:06:01;102055.63;;;22.60;85.19
23574;BME280;11965;53.640;10.050;2023-08-20T09:08:31;102056.84;;;22.41;83.05
23574;BME280;11965;53.640;10.050;2023-08-20T09:10:59;102060.28;;;22.55;81.36
23574;BME280;11965;53.640;10.050;2023-08-20T09:13:33;102058.69;;;22.47;80.00
23574;BME280;11965;53.640;10.050;2023-08-20T09:16:03;102062.59;;;22.69;84.17
23574;BME280;11965;53.640;10.050;2023-08-20T09:18:31;102062.81;;;22.91;82.96
23574;BME280;11965;53.640;10.050;2023-08-20T09:20:58;102059.06;;;22.74;81.79
23574;BME280;11965;53.640;10.050;2023-08-20T09:23:30;102067.28;;;22.99;83.41
23574;BME280;11965;53.640;10.050;2023-08-20T09:25:57;102061.22;;;23.07;79.52
23574;BME280;11965;53.640;10.050;2023-08-20T09:28:24;102057.34;;;23.37;77.43
23574;BME280;11965;53.640;10.050;2023-08-20T09:30:59;102059.88;;;23.50;78.71
23574;BME280;11965;53.640;10.050;2023-08-20T09:33:28;102055.53;;;23.71;78.87
23574;BME280;11965;53.640;10.050;2023-08-20T09:35:55;102058.81;;;23.68;77.66
23574;BME280;11965;53.640;10.050;2023-08-20T09:38:23;102051.81;;;23.99;74.25
23574;BME280;11965;53.640;10.050;2023-08-20T09:40:54;102056.22;;;23.78;75.81
23574;BME280;11965;53.640;10.050;2023-08-20T09:43:24;102054.44;;;23.72;79.15
23574;BME280;11965;53.640;10.050;2023-08-20T09:45:55;102057.00;;;23.74;74.90
23574;BME280;11965;53.640;10.050;2023-08-20T09:48:24;102042.69;;;23.97;75.18
23574;BME280;11965;53.640;10.050;2023-08-20T09:50:59;102054.22;;;24.24;75.84
23574;BME280;11965;53.640;10.050;2023-08-20T09:53:33;102054.41;;;24.52;74.93
23574;BME280;11965;53.640;10.050;2023-08-20T09:56:09;102052.56;;;24.29;73.37
23574;BME280;11965;53.640;10.050;2023-08-20T09:58:37;102051.84;;;23.88;75.15
23574;BME280;11965;53.640;10.050;2023-08-20T10:01:05;102051.72;;;23.94;72.08
23574;BME280;11965;53.640;10.050;2023-08-20T10:03:33;102041.06;;;24.01;76.19
23574;BME280;11965;53.640;10.050;2023-08-20T10:06:02;102031.72;;;24.35;73.33
23574;BME280;11965;53.640;10.050;2023-08-20T10:08:30;102041.69;;;24.37;74.15
23574;BME280;11965;53.640;10.050;2023-08-20T10:10:57;102041.69;;;24.54;75.01
23574;BME280;11965;53.640;10.050;2023-08-20T10:13:25;102039.03;;;24.64;71.16
23574;BME280;11965;53.640;10.050;2023-08-20T10:15:52;102033.59;;;24.63;67.09
23574;BME280;11965;53.640;10.050;2023-08-20T10:18:21;102037.69;;;24.89;68.83
23574;BME280;11965;53.640;10.050;2023-08-20T10:20:50;102031.94;;;25.06;67.02
23574;BME280;11965;53.640;10.050;2023-08-20T10:23:20;102028.47;;;24.60;69.60
23574;BME280;11965;53.640;10.050;2023-08-20T10:25:48;102025.81;;;24.53;70.74
23574;BME280;11965;53.640;10.050;2023-08-20T10:28:21;102021.88;;;24.76;67.69
23574;BME280;11965;53.640;10.050;2023-08-20T10:31:07;102028.09;;;24.95;66.84
23574;BME280;11965;53.640;10.050;2023-08-20T10:33:35;102015.00;;;25.11;65.04
23574;BME280;11965;53.640;10.050;2023-08-20T10:36:10;102028.94;;;24.74;69.03
23574;BME280;11965;53.640;10.050;2023-08-20T10:38:37;102021.41;;;24.62;67.83
23574;BME280;11965;53.640;10.050;2023-08-20T10:41:09;102028.22;;;24.44;69.01
23574;BME280;11965;53.640;10.050;2023-08-20T10:43:38;102020.41;;;24.52;71.58
23574;BME280;11965;53.640;10.050;2023-08-20T10:46:08;102022.25;;;24.80;66.02
23574;BME280;11965;53.640;10.050;2023-08-20T10:48:38;102024.25;;;24.62;67.17
23574;BME280;11965;53.640;10.050;2023-08-20T10:51:13;102028.88;;;24.68;69.07
23574;BME280;11965;53.640;10.050;2023-08-20T10:53:41;102018.16;;;24.92;67.82
23574;BME280;11965;53.640;10.050;2023-08-20T10:56:14;102023.91;;;25.20;65.40
23574;BME280;11965;53.640;10.050;2023-08-20T10:58:42;102018.63;;;25.50;65.92
23574;BME280;11965;53.640;10.050;2023-08-20T11:01:29;102022.38;;;25.83;61.37
23574;BME280;11965;53.640;10.050;2023-08-20T11:03:56;102019.88;;;25.87;61.40
23574;BME280;11965;53.640;10.050;2023-08-20T11:06:30;102019.22;;;26.07;60.70
23574;BME280;11965;53.640;10.050;2023-08-20T11:08:57;102025.00;;;25.90;61.91
23574;BME280;11965;53.640;10.050;2023-08-20T11:11:25;102020.28;;;26.00;60.32
23574;BME280;11965;53.640;10.050;2023-08-20T11:13:52;102024.91;;;25.52;62.31
23574;BME280;11965;53.640;10.050;2023-08-20T11:16:19;102031.84;;;25.40;61.77
23574;BME280;11965;53.640;10.050;2023-08-20T11:18:47;102032.00;;;24.89;61.92
23574;BME280;11965;53.640;10.050;2023-08-20T11:21:14;102036.88;;;24.55;64.98
23574;BME280;11965;53.640;10.050;2023-08-20T11:23:41;102031.22;;;24.38;67.32
23574;BME280;11965;53.640;10.050;2023-08-20T11:26:08;102041.09;;;24.52;65.21
23574;BME280;11965;53.640;10.050;2023-08-20T11:28:35;102049.06;;;24.72;67.60
23574;BME280;11965;53.640;10.050;2023-08-20T11:31:02;102046.09;;;24.45;68.09
23574;BME280;11965;53.640;10.050;2023-08-20T11:33:29;102036.88;;;24.55;65.71
23574;BME280;11965;53.640;10.050;2023-08-20T11:35:57;102042.75;;;24.87;64.74
23574;BME280;11965;53.640;10.050;2023-08-20T11:38:24;102038.28;;;25.13;64.11
23574;BME280;11965;53.640;10.050;2023-08-20T11:40:51;102036.38;;;25.41;66.42
23574;BME280;11965;53.640;10.050;2023-08-20T11:43:18;102030.63;;;26.12;61.27
23574;BME280;11965;53.640;10.050;2023-08-20T11:45:48;102026.31;;;26.41;63.28
23574;BME280;11965;53.640;10.050;2023-08-20T11:48:16;102028.69;;;26.17;61.48
23574;BME280;11965;53.640;10.050;2023-08-20T11:50:44;102028.44;;;26.24;59.01
23574;BME280;11965;53.640;10.050;2023-08-20T11:53:12;102038.09;;;26.23;60.40
23574;BME280;11965;53.640;10.050;2023-08-20T11:55:39;102031.63;;;26.28;57.71
23574;BME280;11965;53.640;10.050;2023-08-20T11:58:12;102034.41;;;26.55;58.22
23574;BME280;11965;53.640;10.050;2023-08-20T12:00:40;102025.28;;;26.53;58.53
23574;BME280;11965;53.640;10.050;2023-08-20T12:03:08;102033.94;;;26.68;59.64
23574;BME280;11965;53.640;10.050;2023-08-20T12:05:35;102026.44;;;26.19;58.24
23574;BME280;11965;53.640;10.050;2023-08-20T12:08:04;102025.00;;;25.90;60.87
23574;BME280;11965;53.640;10.050;2023-08-20T12:10:32;102029.38;;;26.03;63.80
23574;BME280;11965;53.640;10.050;2023-08-20T12:12:59;102030.47;;;26.29;59.98
23574;BME280;11965;53.640;10.050;2023-08-20T12:15:26;102029.78;;;25.84;66.07
23574;BME280;11965;53.640;10.050;2023-08-20T12:17:58;102019.75;;;25.76;59.47
23574;BME280;11965;53.640;10.050;2023-08-20T12:20:27;102026.41;;;25.38;62.41
23574;BME280;11965;53.640;10.050;2023-08-20T12:22:54;102023.50;;;25.11;62.83
23574;BME280;11965;53.640;10.050;2023-08-20T12:25:21;102032.00;;;24.89;65.21
23574;BME280;11965;53.640;10.050;2023-08-20T12:27:49;102032.47;;;24.81;67.98
23574;BME280;11965;53.640;10.050;2023-08-20T12:30:16;102027.41;;;24.66;65.55
23574;BME280;11965;53.640;10.050;2023-08-20T12:32:43;102026.38;;;24.38;72.69
23574;BME280;11965;53.640;10.050;2023-08-20T12:35:10;102027.53;;;24.54;64.14
23574;BME280;11965;53.640;10.050;2023-08-20T12:37:37;102028.53;;;24.65;68.98